createdAt,value
2023-01-06T00:00:30.139Z,49.63
2023-01-06T00:02:56.698Z,55.65
2023-01-06T00:05:23.241Z,52.45
2023-01-06T00:07:50.496Z,56.20
2023-01-06T00:10:17.303Z,50.55
2023-01-06T00:12:47.988Z,54.55
2023-01-06T00:15:16.119Z,51.78
2023-01-06T00:17:42.910Z,52.70
2023-01-06T00:20:10.371Z,47.00
2023-01-06T00:22:36.835Z,52.92
2023-01-06T00:25:03.432Z,46.42
2023-01-06T00:27:31.276Z,49.70
2023-01-06T00:29:57.628Z,42.63
2023-01-06T00:32:24.039Z,43.03
2023-01-06T00:34:50.685Z,40.45
2023-01-06T00:37:17.113Z,42.65
2023-01-06T00:39:43.558Z,41.05
2023-01-06T00:42:09.903Z,42.83
2023-01-06T00:44:38.127Z,39.53
2023-01-06T00:47:06.755Z,38.47
2023-01-06T00:49:33.230Z,39.25
2023-01-06T00:51:59.725Z,38.63
2023-01-06T00:54:26.160Z,39.25
2023-01-06T00:56:54.286Z,44.13
2023-01-06T00:59:22.717Z,42.17
2023-01-06T01:01:51.711Z,40.92
2023-01-06T01:04:19.540Z,41.75
2023-01-06T01:06:47.426Z,43.05
2023-01-06T01:09:17.280Z,40.08
2023-01-06T01:12:02.208Z,38.65
2023-01-06T01:14:28.984Z,37.10
2023-01-06T01:16:55.491Z,39.15
2023-01-06T01:19:22.661Z,40.65
2023-01-06T01:21:49.253Z,38.55
2023-01-06T01:24:15.827Z,40.78
2023-01-06T01:26:42.277Z,41.25
2023-01-06T01:29:11.850Z,40.08
2023-01-06T01:31:38.242Z,40.25
2023-01-06T01:34:04.634Z,37.33
2023-01-06T01:36:31.318Z,40.03
2023-01-06T01:38:58.344Z,40.55
2023-01-06T01:41:26.315Z,43.08
2023-01-06T01:43:58.980Z,43.28
2023-01-06T01:46:42.595Z,42.20
2023-01-06T01:49:19.714Z,39.45
2023-01-06T01:51:48.311Z,38.40
2023-01-06T01:54:23.724Z,40.67
2023-01-06T01:56:55.608Z,36.50
2023-01-06T01:59:26.184Z,41.05
2023-01-06T02:01:53.307Z,40.40
2023-01-06T02:04:21.993Z,41.30
2023-01-06T02:06:50.416Z,36.70
2023-01-06T02:09:39.012Z,31.38
2023-01-06T02:12:05.916Z,26.08
2023-01-06T02:14:32.267Z,28.58
2023-01-06T02:17:32.317Z,26.38
2023-01-06T02:20:24.001Z,21.70
2023-01-06T02:23:12.645Z,21.92
2023-01-06T02:26:15.979Z,22.10
2023-01-06T02:28:57.539Z,17.80
2023-01-06T02:31:31.600Z,17.63
2023-01-06T02:34:27.197Z,17.75
2023-01-06T02:37:11.682Z,17.00
2023-01-06T02:39:47.016Z,17.00
2023-01-06T02:42:42.633Z,14.48
2023-01-06T02:45:22.225Z,15.30
2023-01-06T02:48:09.814Z,15.35
2023-01-06T02:51:04.672Z,14.82
2023-01-06T02:53:39.626Z,17.00
2023-01-06T02:56:06.505Z,16.52
2023-01-06T02:58:51.127Z,19.13
2023-01-06T03:03:52.406Z,18.48
2023-01-06T03:06:24.368Z,25.20
2023-01-06T03:08:53.493Z,26.85
2023-01-06T03:11:20.433Z,27.83
2023-01-06T03:13:55.993Z,29.90
2023-01-06T03:16:22.503Z,28.10
2023-01-06T03:18:51.113Z,27.45
2023-01-06T03:21:21.368Z,29.92
2023-01-06T03:23:47.918Z,30.10
2023-01-06T03:26:15.208Z,29.60
2023-01-06T03:28:41.561Z,30.98
2023-01-06T03:31:17.228Z,30.80
2023-01-06T03:34:13.253Z,29.00
2023-01-06T03:36:49.391Z,29.48
2023-01-06T03:39:22.681Z,28.65
2023-01-06T03:42:35.216Z,29.95
2023-01-06T03:45:28.505Z,25.70
2023-01-06T03:48:19.252Z,25.33
2023-01-06T03:50:57.336Z,25.73
2023-01-06T03:53:49.221Z,26.33
2023-01-06T03:56:30.837Z,23.95
2023-01-06T03:59:13.217Z,21.25
2023-01-06T04:01:43.365Z,20.13
2023-01-06T04:04:10.168Z,22.77
2023-01-06T04:06:36.654Z,24.00
2023-01-06T04:09:03.163Z,20.20
2023-01-06T04:11:48.133Z,22.60
2023-01-06T04:14:14.510Z,20.15
2023-01-06T04:16:40.844Z,21.30
2023-01-06T04:19:07.222Z,21.52
2023-01-06T04:21:33.740Z,21.15
2023-01-06T04:24:00.127Z,20.80
2023-01-06T04:26:26.450Z,24.55
2023-01-06T04:28:52.781Z,22.98
2023-01-06T04:31:19.255Z,22.45
2023-01-06T04:33:45.800Z,23.83
2023-01-06T04:36:12.162Z,23.77
2023-01-06T04:38:38.474Z,25.20
2023-01-06T04:41:04.917Z,25.23
2023-01-06T04:43:31.238Z,27.48
2023-01-06T04:45:59.230Z,28.70
2023-01-06T04:48:26.104Z,27.55
2023-01-06T04:51:08.586Z,27.50
2023-01-06T04:53:36.590Z,26.83
2023-01-06T04:56:04.915Z,28.10
2023-01-06T04:58:31.976Z,29.20
2023-01-06T05:01:06.979Z,31.35
2023-01-06T05:03:35.031Z,29.30
2023-01-06T05:06:09.814Z,30.67
2023-01-06T05:08:37.536Z,27.63
2023-01-06T05:11:07.017Z,29.05
2023-01-06T05:13:34.447Z,32.45
2023-01-06T05:16:00.923Z,29.52
2023-01-06T05:18:27.356Z,31.40
2023-01-06T05:20:55.218Z,30.27
2023-01-06T05:23:21.746Z,29.67
2023-01-06T05:25:52.058Z,31.85
2023-01-06T05:28:19.335Z,28.90
2023-01-06T05:30:45.974Z,42.28
2023-01-06T05:33:12.395Z,31.92
2023-01-06T05:35:38.755Z,31.92
2023-01-06T05:38:05.372Z,32.10
2023-01-06T05:40:31.830Z,25.83
2023-01-06T05:42:58.430Z,30.13
2023-01-06T05:45:25.229Z,31.67
2023-01-06T05:47:52.163Z,34.20
2023-01-06T05:50:19.186Z,32.58
2023-01-06T05:55:29.104Z,23.92
2023-01-06T05:57:55.399Z,26.83
2023-01-06T06:00:21.903Z,31.15
2023-01-06T06:02:48.283Z,32.58
2023-01-06T06:05:14.736Z,30.40
2023-01-06T06:07:41.102Z,31.23
2023-01-06T06:10:09.271Z,30.25
2023-01-06T06:12:36.615Z,28.90
2023-01-06T06:15:05.124Z,28.92
2023-01-06T06:17:31.591Z,28.40
2023-01-06T06:19:57.975Z,27.00
2023-01-06T06:22:24.313Z,28.15
2023-01-06T06:24:50.761Z,28.30
2023-01-06T06:27:19.717Z,27.45
2023-01-06T06:29:46.075Z,28.08
2023-01-06T06:32:12.445Z,26.92
2023-01-06T06:34:38.811Z,26.02
2023-01-06T06:37:05.205Z,26.25
2023-01-06T06:39:31.684Z,24.58
2023-01-06T06:41:58.073Z,25.92
2023-01-06T06:44:24.432Z,26.83
2023-01-06T06:46:50.782Z,23.60
2023-01-06T06:49:17.213Z,27.38
2023-01-06T06:51:47.197Z,25.90
2023-01-06T06:54:14.223Z,26.02
2023-01-06T06:56:40.572Z,27.67
2023-01-06T06:59:06.925Z,27.67
2023-01-06T07:01:33.387Z,26.67
2023-01-06T07:03:59.851Z,28.83
2023-01-06T07:06:31.328Z,26.17
2023-01-06T07:08:57.841Z,26.45
2023-01-06T07:11:24.287Z,29.80
2023-01-06T07:13:50.735Z,30.15
2023-01-06T07:16:18.281Z,30.52
2023-01-06T07:18:44.811Z,29.77
2023-01-06T07:21:11.430Z,26.88
2023-01-06T07:23:37.842Z,31.98
2023-01-06T07:26:04.389Z,28.95
2023-01-06T07:28:32.109Z,31.00
2023-01-06T07:31:03.394Z,30.33
2023-01-06T07:33:30.070Z,31.73
2023-01-06T07:35:57.237Z,32.17
2023-01-06T07:38:24.404Z,32.13
2023-01-06T07:40:51.630Z,26.75
2023-01-06T07:43:18.015Z,27.08
2023-01-06T07:45:49.688Z,30.70
2023-01-06T07:48:17.089Z,30.08
2023-01-06T07:50:43.697Z,30.23
2023-01-06T07:53:11.135Z,31.17
2023-01-06T07:55:37.705Z,30.63
2023-01-06T07:58:08.299Z,27.45
2023-01-06T08:00:35.578Z,31.70
2023-01-06T08:03:07.158Z,32.20
2023-01-06T08:05:37.222Z,31.27
2023-01-06T08:08:03.714Z,34.00
2023-01-06T08:10:30.127Z,32.17
2023-01-06T08:13:05.481Z,31.52
2023-01-06T08:15:31.998Z,27.25
2023-01-06T08:17:58.531Z,34.33
2023-01-06T08:20:25.013Z,32.70
2023-01-06T08:22:51.429Z,32.17
2023-01-06T08:25:18.156Z,33.33
2023-01-06T08:27:44.558Z,34.15
2023-01-06T08:30:11.357Z,31.98
2023-01-06T08:32:37.756Z,33.65
2023-01-06T08:35:04.856Z,32.58
2023-01-06T08:37:31.227Z,33.95
2023-01-06T08:39:57.564Z,34.78
2023-01-06T08:42:24.405Z,31.77
2023-01-06T08:44:50.869Z,32.65
2023-01-06T08:47:17.526Z,28.50
2023-01-06T08:49:44.061Z,29.02
2023-01-06T08:52:10.478Z,30.25
2023-01-06T08:54:39.188Z,33.30
2023-01-06T08:57:06.097Z,36.28
2023-01-06T08:59:32.546Z,36.55
2023-01-06T09:01:58.950Z,34.92
2023-01-06T09:04:25.465Z,35.15
2023-01-06T09:06:51.870Z,36.38
2023-01-06T09:09:18.425Z,38.00
2023-01-06T09:11:46.186Z,43.17
2023-01-06T09:14:14.123Z,43.85
2023-01-06T09:16:41.096Z,46.20
2023-01-06T09:19:10.144Z,49.78
2023-01-06T09:21:36.651Z,51.28
2023-01-06T09:24:03.315Z,53.28
2023-01-06T09:26:29.905Z,60.38
2023-01-06T09:28:56.327Z,53.47
2023-01-06T09:31:22.765Z,52.38
2023-01-06T09:33:49.308Z,59.28
2023-01-06T09:36:15.686Z,55.80
2023-01-06T09:38:42.058Z,68.95
2023-01-06T09:41:39.397Z,54.60
2023-01-06T09:44:17.756Z,60.40
2023-01-06T09:46:48.039Z,66.68
2023-01-06T09:49:38.903Z,62.58
2023-01-06T09:52:15.036Z,71.63
2023-01-06T09:55:09.062Z,65.43
2023-01-06T09:57:46.977Z,74.90
2023-01-06T10:00:33.639Z,84.07
2023-01-06T10:03:00.139Z,76.70
2023-01-06T10:05:53.139Z,104.63
2023-01-06T10:08:22.544Z,81.00
2023-01-06T10:11:10.902Z,91.25
2023-01-06T10:13:40.485Z,100.50
2023-01-06T10:16:29.243Z,85.88
2023-01-06T10:19:12.347Z,127.82
2023-01-06T10:21:50.611Z,83.63
2023-01-06T10:24:44.819Z,91.60
2023-01-06T10:27:26.746Z,106.13
2023-01-06T10:29:55.729Z,88.30
2023-01-06T10:32:23.296Z,99.18
2023-01-06T10:34:50.925Z,102.43
2023-01-06T10:37:17.246Z,115.07
2023-01-06T10:39:45.871Z,94.43
2023-01-06T10:42:57.335Z,109.05
2023-01-06T10:45:26.815Z,75.00
2023-01-06T10:47:54.041Z,65.45
2023-01-06T10:50:20.876Z,60.80
2023-01-06T10:52:48.610Z,58.03
2023-01-06T10:55:33.705Z,88.00
2023-01-06T10:58:12.593Z,44.20
2023-01-06T11:00:54.698Z,40.22
2023-01-06T11:03:32.863Z,46.92
2023-01-06T11:06:06.462Z,46.03
2023-01-06T11:08:44.144Z,47.53
2023-01-06T11:11:27.347Z,48.47
2023-01-06T11:14:01.056Z,51.40
2023-01-06T11:16:33.101Z,47.92
2023-01-06T11:19:08.194Z,54.85
2023-01-06T11:21:46.715Z,52.00
2023-01-06T11:24:25.347Z,48.78
2023-01-06T11:26:54.724Z,49.38
2023-01-06T11:29:29.188Z,47.42
2023-01-06T11:31:57.867Z,51.22
2023-01-06T11:34:27.322Z,47.53
2023-01-06T11:36:53.792Z,53.65
2023-01-06T11:39:24.539Z,49.50
2023-01-06T11:41:53.871Z,39.75
2023-01-06T11:44:32.108Z,37.45
2023-01-06T11:47:12.208Z,42.65
2023-01-06T11:49:50.997Z,42.83
2023-01-06T11:52:17.318Z,39.70
2023-01-06T11:54:44.659Z,36.80
2023-01-06T11:57:27.541Z,40.55
2023-01-06T12:00:24.740Z,35.50
2023-01-06T12:03:07.276Z,42.08
2023-01-06T12:05:45.603Z,44.70
2023-01-06T12:08:19.832Z,52.70
2023-01-06T12:13:14.886Z,54.88
2023-01-06T12:15:44.060Z,54.40
2023-01-06T12:18:18.947Z,55.25
2023-01-06T12:20:49.869Z,57.97
2023-01-06T12:23:35.938Z,58.90
2023-01-06T12:26:09.223Z,58.00
2023-01-06T12:28:38.377Z,54.03
2023-01-06T12:31:15.908Z,64.45
2023-01-06T12:33:49.332Z,61.97
2023-01-06T12:36:37.569Z,64.00
2023-01-06T12:39:10.972Z,70.03
2023-01-06T12:41:58.276Z,75.47
2023-01-06T12:44:52.142Z,82.07
2023-01-06T12:47:54.899Z,84.05
2023-01-06T12:50:34.265Z,88.47
2023-01-06T12:53:07.375Z,101.78
2023-01-06T12:55:58.166Z,119.80
2023-01-06T12:58:39.707Z,118.80
2023-01-06T13:01:16.065Z,169.65
2023-01-06T13:04:35.175Z,219.02
2023-01-06T13:07:32.404Z,148.80
2023-01-06T13:10:15.568Z,128.80
2023-01-06T13:13:02.574Z,123.40
2023-01-06T13:15:31.721Z,109.60
2023-01-06T13:18:07.163Z,114.20
2023-01-06T13:20:43.040Z,96.07
2023-01-06T13:23:27.913Z,88.65
2023-01-06T13:26:19.173Z,87.40
2023-01-06T13:29:08.954Z,71.93
2023-01-06T13:31:52.923Z,65.32
2023-01-06T13:34:31.477Z,57.97
2023-01-06T13:37:20.723Z,66.90
2023-01-06T13:40:00.919Z,62.50
2023-01-06T13:42:54.572Z,56.10
2023-01-06T13:45:31.840Z,58.55
2023-01-06T13:48:00.779Z,64.13
2023-01-06T13:50:28.533Z,70.38
2023-01-06T13:52:56.125Z,71.75
2023-01-06T13:55:26.083Z,69.85
2023-01-06T13:57:52.770Z,75.70
2023-01-06T14:00:25.254Z,75.03
2023-01-06T14:02:51.720Z,72.25
2023-01-06T14:05:21.418Z,69.65
2023-01-06T14:07:55.197Z,73.18
2023-01-06T14:10:42.966Z,70.75
2023-01-06T14:13:30.475Z,63.97
2023-01-06T14:16:05.289Z,60.33
2023-01-06T14:18:36.964Z,66.53
2023-01-06T14:21:20.655Z,76.20
2023-01-06T14:24:01.032Z,71.40
2023-01-06T14:27:01.279Z,74.63
2023-01-06T14:29:50.104Z,75.15
2023-01-06T14:32:18.929Z,78.25
2023-01-06T14:34:58.564Z,97.45
2023-01-06T14:37:29.051Z,82.13
2023-01-06T14:39:56.669Z,119.05
2023-01-06T14:42:45.289Z,112.28
2023-01-06T14:45:23.027Z,88.50
2023-01-06T14:47:52.977Z,103.97
2023-01-06T14:50:41.972Z,109.70
2023-01-06T14:53:23.085Z,92.18
2023-01-06T14:55:50.867Z,93.55
2023-01-06T14:58:36.781Z,100.47
2023-01-06T15:01:08.199Z,91.32
2023-01-06T15:03:35.163Z,84.10
2023-01-06T15:06:23.191Z,82.25
2023-01-06T15:08:50.153Z,73.78
2023-01-06T15:11:22.858Z,67.30
2023-01-06T15:13:49.576Z,68.93
2023-01-06T15:16:21.199Z,68.32
2023-01-06T15:18:48.754Z,69.47
2023-01-06T15:21:15.435Z,70.60
2023-01-06T15:23:50.833Z,69.90
2023-01-06T15:26:21.036Z,74.20
2023-01-06T15:29:02.777Z,70.95
2023-01-06T15:31:32.920Z,68.63
2023-01-06T15:34:02.408Z,73.65
2023-01-06T15:36:30.124Z,70.05
2023-01-06T15:39:02.304Z,73.90
2023-01-06T15:41:33.122Z,71.72
2023-01-06T15:44:20.457Z,70.57
2023-01-06T15:46:49.294Z,70.18
2023-01-06T15:49:25.601Z,69.50
2023-01-06T15:51:55.675Z,77.47
2023-01-06T15:54:22.820Z,74.88
2023-01-06T15:56:49.259Z,67.78
2023-01-06T15:59:15.757Z,74.15
2023-01-06T16:01:51.343Z,69.70
2023-01-06T16:04:18.371Z,78.07
2023-01-06T16:06:44.827Z,71.35
2023-01-06T16:09:40.328Z,76.68
2023-01-06T16:12:09.625Z,83.55
2023-01-06T16:14:43.806Z,74.90
2023-01-06T16:17:11.556Z,71.18
2023-01-06T16:19:49.463Z,70.75
2023-01-06T16:22:30.949Z,85.45
2023-01-06T16:24:59.912Z,80.90
2023-01-06T16:27:27.092Z,80.30
2023-01-06T16:30:20.741Z,82.00
2023-01-06T16:32:47.876Z,76.00
2023-01-06T16:35:19.707Z,79.05
2023-01-06T16:37:46.128Z,78.75
2023-01-06T16:40:14.051Z,75.22
2023-01-06T16:42:40.989Z,78.18
2023-01-06T16:45:16.351Z,74.60
2023-01-06T16:47:43.472Z,74.72
2023-01-06T16:50:30.964Z,68.65
2023-01-06T16:53:10.755Z,71.93
2023-01-06T16:55:38.706Z,76.45
2023-01-06T16:58:17.819Z,74.97
2023-01-06T17:00:51.170Z,75.38
2023-01-06T17:03:23.911Z,72.90
2023-01-06T17:05:51.455Z,71.32
2023-01-06T17:08:25.377Z,72.70
2023-01-06T17:10:51.764Z,69.85
2023-01-06T17:13:36.486Z,74.82
2023-01-06T17:16:15.807Z,82.53
2023-01-06T17:18:52.337Z,68.05
2023-01-06T17:21:26.773Z,76.03
2023-01-06T17:23:57.691Z,71.75
2023-01-06T17:26:24.487Z,70.75
2023-01-06T17:28:53.699Z,70.03
2023-01-06T17:31:37.071Z,69.22
2023-01-06T17:34:19.630Z,62.25
2023-01-06T17:36:47.864Z,68.15
2023-01-06T17:39:30.218Z,60.55
2023-01-06T17:42:17.833Z,60.03
2023-01-06T17:44:51.240Z,58.67
2023-01-06T17:47:17.689Z,59.30
2023-01-06T17:49:48.660Z,63.60
2023-01-06T17:52:34.793Z,61.95
2023-01-06T17:55:26.031Z,60.53
2023-01-06T17:57:57.750Z,62.40
2023-01-06T18:00:29.352Z,63.10
2023-01-06T18:03:04.945Z,66.07
2023-01-06T18:05:33.185Z,58.40
2023-01-06T18:08:05.506Z,64.50
2023-01-06T18:10:34.520Z,63.33
2023-01-06T18:13:15.693Z,62.38
2023-01-06T18:15:43.326Z,58.80
2023-01-06T18:18:24.076Z,62.15
2023-01-06T18:20:58.617Z,57.53
2023-01-06T18:23:26.236Z,59.30
2023-01-06T18:25:56.562Z,54.13
2023-01-06T18:28:23.318Z,56.28
2023-01-06T18:31:02.975Z,54.97
2023-01-06T18:33:30.032Z,55.55
2023-01-06T18:35:59.384Z,56.13
2023-01-06T18:38:27.067Z,57.70
2023-01-06T18:40:54.558Z,57.33
2023-01-06T18:43:26.122Z,60.05
2023-01-06T18:45:55.226Z,52.20
2023-01-06T18:48:30.292Z,53.55
2023-01-06T18:50:59.024Z,55.35
2023-01-06T18:53:25.617Z,53.22
2023-01-06T18:55:58.496Z,55.22
2023-01-06T18:58:47.016Z,54.33
2023-01-06T19:01:26.340Z,54.45
2023-01-06T19:04:10.089Z,54.78
2023-01-06T19:06:45.510Z,51.43
2023-01-06T19:09:30.539Z,52.03
2023-01-06T19:12:17.324Z,52.70
2023-01-06T19:14:48.184Z,58.05
2023-01-06T19:17:23.123Z,56.42
2023-01-06T19:19:52.507Z,54.53
2023-01-06T19:22:27.194Z,54.67
2023-01-06T19:25:04.723Z,52.33
2023-01-06T19:27:39.342Z,52.05
2023-01-06T19:30:30.067Z,56.15
2023-01-06T19:33:10.289Z,51.17
2023-01-06T19:35:36.684Z,52.45
2023-01-06T19:38:18.098Z,60.30
2023-01-06T19:40:44.512Z,56.25
2023-01-06T19:43:19.866Z,54.03
2023-01-06T19:45:46.244Z,55.65
2023-01-06T19:48:22.648Z,54.08
2023-01-06T19:50:49.800Z,54.40
2023-01-06T19:53:38.924Z,56.97
2023-01-06T19:56:16.382Z,53.25
2023-01-06T19:58:44.587Z,54.20
2023-01-06T20:01:14.194Z,53.53
2023-01-06T20:03:50.154Z,56.33
2023-01-06T20:06:16.572Z,51.95
2023-01-06T20:08:43.909Z,55.03
2023-01-06T20:11:11.926Z,51.78
2023-01-06T20:13:38.428Z,52.47
2023-01-06T20:16:05.777Z,53.78
2023-01-06T20:18:32.414Z,52.45
2023-01-06T20:20:58.995Z,56.13
2023-01-06T20:23:25.447Z,49.22
2023-01-06T20:25:51.845Z,53.80
2023-01-06T20:28:18.426Z,53.97
2023-01-06T20:30:46.438Z,47.25
2023-01-06T20:33:13.440Z,49.13
2023-01-06T20:35:39.816Z,51.67
2023-01-06T20:38:06.187Z,51.90
2023-01-06T20:40:32.592Z,49.95
2023-01-06T20:42:58.932Z,54.70
2023-01-06T20:45:25.296Z,49.70
2023-01-06T20:47:51.652Z,52.15
2023-01-06T20:50:18.151Z,52.97
2023-01-06T20:52:45.461Z,52.80
2023-01-06T20:55:12.339Z,60.25
2023-01-06T20:57:38.769Z,57.53
2023-01-06T21:00:07.002Z,56.00
2023-01-06T21:02:33.855Z,59.08
2023-01-06T21:05:00.277Z,58.58
2023-01-06T21:07:26.716Z,53.92
2023-01-06T21:09:53.047Z,59.65
2023-01-06T21:12:19.498Z,53.63
2023-01-06T21:14:45.874Z,57.60
2023-01-06T21:17:12.240Z,54.63
2023-01-06T21:19:38.548Z,53.13
2023-01-06T21:22:04.930Z,47.28
2023-01-06T21:24:31.305Z,52.13
2023-01-06T21:26:57.658Z,46.25
2023-01-06T21:29:24.020Z,43.97
2023-01-06T21:31:50.377Z,45.40
2023-01-06T21:34:16.688Z,48.20
2023-01-06T21:36:43.135Z,47.63
2023-01-06T21:39:12.544Z,49.05
2023-01-06T21:41:57.548Z,47.33
2023-01-06T21:44:23.886Z,51.47
2023-01-06T21:46:50.277Z,46.95
2023-01-06T21:49:16.627Z,42.38
2023-01-06T21:51:43.068Z,45.83
2023-01-06T21:54:09.541Z,50.05
2023-01-06T21:56:36.344Z,48.05
2023-01-06T21:59:02.770Z,44.38
2023-01-06T22:01:29.832Z,45.95
2023-01-06T22:03:56.256Z,44.40
2023-01-06T22:06:23.759Z,47.42
2023-01-06T22:08:53.053Z,44.65
2023-01-06T22:11:19.795Z,46.58
2023-01-06T22:13:46.223Z,48.88
2023-01-06T22:16:12.907Z,47.25
2023-01-06T22:18:39.793Z,49.33
2023-01-06T22:21:06.842Z,49.75
2023-01-06T22:23:33.938Z,48.03
2023-01-06T22:26:00.289Z,49.63
2023-01-06T22:28:27.797Z,45.97
2023-01-06T22:30:55.343Z,46.35
2023-01-06T22:33:21.737Z,45.33
2023-01-06T22:35:48.115Z,44.17
2023-01-06T22:38:14.442Z,43.65
2023-01-06T22:40:40.812Z,44.92
2023-01-06T22:43:07.622Z,47.10
2023-01-06T22:45:34.922Z,47.15
2023-01-06T22:48:01.804Z,50.53
2023-01-06T22:50:29.152Z,49.40
2023-01-06T22:52:56.283Z,49.65
2023-01-06T22:55:22.785Z,46.08
2023-01-06T22:57:49.122Z,46.83
2023-01-06T23:00:17.563Z,49.63
2023-01-06T23:02:44.285Z,50.03
2023-01-06T23:05:10.924Z,46.72
2023-01-06T23:07:42.261Z,48.25
2023-01-06T23:10:10.653Z,47.40
2023-01-06T23:12:39.254Z,46.72
2023-01-06T23:15:06.961Z,50.33
2023-01-06T23:17:33.293Z,49.80
2023-01-06T23:19:59.594Z,49.85
2023-01-06T23:22:25.947Z,45.40
2023-01-06T23:24:52.333Z,51.60
2023-01-06T23:27:18.634Z,49.58
2023-01-06T23:29:45.929Z,52.35
2023-01-06T23:32:12.745Z,50.50
2023-01-06T23:34:39.070Z,53.30
2023-01-06T23:37:05.384Z,53.03
2023-01-06T23:39:31.707Z,53.42
2023-01-06T23:41:58.070Z,53.22
2023-01-06T23:44:24.396Z,56.05
2023-01-06T23:46:50.753Z,53.40
2023-01-06T23:49:17.495Z,55.20
2023-01-06T23:51:44.753Z,52.88
2023-01-06T23:54:12.244Z,52.80
2023-01-06T23:56:38.943Z,51.05
2023-01-06T23:59:07.064Z,54.55
